KMRC/MRC METAR and TAF weather

Enter ICAO airport designator
Station Type Date Time Source
KMRC METAR 2019/04/19 10:15 UTC NOAA

KMRC 191015Z AUTO 00000KT 10SM OVC006 15/15 A2945 RMK A01


Station Type Date Time Source
KMRC Decoded METAR 2019/04/19 10:15 UTC NOAA

Columbia / Maury County, TN, United States (KMRC) 35-33N 087-11W
Apr 19, 2019 - 06:15 AM EDT / 2019.04.19 1015 UTC
Wind: Calm:0
Visibility: 10 mile(s):0
Sky conditions: overcast
Temperature: 59 F (15 C)
Dew Point: 59 F (15 C)
Relative Humidity: 100%
Pressure (altimeter): 29.45 in. Hg (997 hPa)
ob: KMRC 191015Z AUTO 00000KT 10SM OVC006 15/15 A2945 RMK A01
cycle: 10

Station Type Date Time Source
KMRC TAF 2009/08/31 19:45 UTC NOAA

METAR KMRC 311945Z AUTO 06008KT 10SM CLR 26/12 A3010
RMK AO1 T02550116 $

Example: see airport list